createdAt,value
2023-01-22T00:01:30.494Z,78.60
2023-01-22T00:02:34.667Z,78.59
2023-01-22T00:03:36.573Z,77.47
2023-01-22T00:04:38.105Z,77.88
2023-01-22T00:05:39.502Z,79.48
2023-01-22T00:06:41.689Z,77.36
2023-01-22T00:07:43.403Z,77.08
2023-01-22T00:08:45.957Z,77.03
2023-01-22T00:09:47.438Z,76.86
2023-01-22T00:10:52.499Z,76.73
2023-01-22T00:11:54.021Z,77.06
2023-01-22T00:12:55.608Z,76.86
2023-01-22T00:13:57.077Z,76.85
2023-01-22T00:14:58.742Z,76.67
2023-01-22T00:16:03.090Z,78.35
2023-01-22T00:17:04.718Z,77.09
2023-01-22T00:18:09.280Z,77.43
2023-01-22T00:19:10.820Z,78.26
2023-01-22T00:20:12.890Z,77.32
2023-01-22T00:21:14.366Z,78.06
2023-01-22T00:22:15.937Z,77.92
2023-01-22T00:23:18.745Z,77.08
2023-01-22T00:24:20.142Z,76.68
2023-01-22T00:25:23.278Z,77.79
2023-01-22T00:26:24.792Z,77.23
2023-01-22T00:27:26.832Z,77.65
2023-01-22T00:28:29.320Z,78.05
2023-01-22T00:29:30.786Z,76.95
2023-01-22T00:30:32.456Z,76.70
2023-01-22T00:31:34.296Z,76.75
2023-01-22T00:32:35.809Z,76.86
2023-01-22T00:33:38.125Z,78.41
2023-01-22T00:34:39.713Z,79.41
2023-01-22T00:35:41.436Z,78.13
2023-01-22T00:36:42.860Z,77.56
2023-01-22T00:37:46.311Z,77.77
2023-01-22T00:38:48.308Z,77.64
2023-01-22T00:39:49.820Z,77.02
2023-01-22T00:40:52.346Z,77.29
2023-01-22T00:41:53.942Z,78.82
2023-01-22T00:42:55.579Z,78.56
2023-01-22T00:43:57.363Z,77.16
2023-01-22T00:44:59.237Z,76.99
2023-01-22T00:46:00.988Z,76.76
2023-01-22T00:47:02.545Z,76.82
2023-01-22T00:48:04.441Z,76.82
2023-01-22T00:49:06.165Z,77.07
2023-01-22T00:50:08.044Z,76.70
2023-01-22T00:51:09.820Z,76.79
2023-01-22T00:52:11.361Z,77.12
2023-01-22T00:53:13.109Z,76.94
2023-01-22T00:54:15.013Z,76.97
2023-01-22T00:55:16.922Z,76.94
2023-01-22T00:56:18.431Z,77.21
2023-01-22T00:57:21.337Z,77.10
2023-01-22T00:58:23.405Z,77.58
2023-01-22T00:59:25.358Z,77.22
2023-01-22T01:00:27.636Z,77.23
2023-01-22T01:01:29.232Z,77.35
2023-01-22T01:02:32.286Z,77.70
2023-01-22T01:03:36.081Z,77.41
2023-01-22T01:04:39.017Z,77.04
2023-01-22T01:05:40.508Z,77.04
2023-01-22T01:06:45.437Z,77.06
2023-01-22T01:07:47.486Z,77.33
2023-01-22T01:08:49.235Z,77.19
2023-01-22T01:09:51.049Z,77.44
2023-01-22T01:10:59.934Z,77.37
2023-01-22T01:12:01.923Z,77.30
2023-01-22T01:13:03.735Z,77.97
2023-01-22T01:14:05.526Z,77.21
2023-01-22T01:15:07.536Z,77.82
2023-01-22T01:16:13.175Z,79.76
2023-01-22T01:17:15.131Z,78.15
2023-01-22T01:18:16.665Z,77.46
2023-01-22T01:19:19.868Z,77.24
2023-01-22T01:20:25.273Z,77.37
2023-01-22T01:21:27.078Z,80.78
2023-01-22T01:22:28.579Z,80.13
2023-01-22T01:23:30.426Z,78.63
2023-01-22T01:24:31.871Z,79.43
2023-01-22T01:25:33.578Z,80.75
2023-01-22T01:26:35.332Z,79.13
2023-01-22T01:27:37.777Z,77.97
2023-01-22T01:28:39.744Z,78.92
2023-01-22T01:29:41.252Z,77.78
2023-01-22T01:30:43.618Z,77.77
2023-01-22T01:31:45.151Z,78.14
2023-01-22T01:32:46.734Z,77.60
2023-01-22T01:33:49.036Z,77.52
2023-01-22T01:34:50.654Z,78.14
2023-01-22T01:36:00.924Z,77.65
2023-01-22T01:37:04.500Z,77.43
2023-01-22T01:38:06.400Z,77.20
2023-01-22T01:39:09.153Z,77.36
2023-01-22T01:40:11.110Z,77.32
2023-01-22T01:41:14.023Z,77.62
2023-01-22T01:42:21.459Z,77.83
2023-01-22T01:43:23.004Z,77.77
2023-01-22T01:44:26.664Z,78.80
2023-01-22T01:45:32.322Z,79.31
2023-01-22T01:46:36.021Z,77.97
2023-01-22T01:47:43.796Z,77.81
2023-01-22T01:48:47.134Z,77.43
2023-01-22T01:49:50.790Z,77.67
2023-01-22T01:50:59.157Z,78.43
2023-01-22T01:52:02.326Z,80.75
2023-01-22T01:53:03.829Z,81.70
2023-01-22T01:54:06.043Z,78.49
2023-01-22T01:55:08.309Z,78.14
2023-01-22T01:56:12.893Z,80.09
2023-01-22T01:57:18.748Z,78.64
2023-01-22T01:58:23.093Z,78.56
2023-01-22T01:59:24.661Z,78.35
2023-01-22T02:00:33.615Z,78.31
2023-01-22T02:01:36.064Z,78.68
2023-01-22T02:02:37.951Z,81.05
2023-01-22T02:03:39.748Z,79.88
2023-01-22T02:04:41.570Z,78.46
2023-01-22T02:05:43.840Z,79.49
2023-01-22T02:06:48.090Z,79.22
2023-01-22T02:07:49.865Z,81.53
2023-01-22T02:08:53.090Z,79.17
2023-01-22T02:09:54.638Z,78.20
2023-01-22T02:10:56.250Z,78.15
2023-01-22T02:11:57.913Z,78.31
2023-01-22T02:13:00.952Z,78.12
2023-01-22T02:14:08.144Z,78.32
2023-01-22T02:15:10.047Z,79.78
2023-01-22T02:16:11.605Z,78.37
2023-01-22T02:17:14.747Z,78.02
2023-01-22T02:18:16.445Z,78.33
2023-01-22T02:19:17.878Z,78.52
2023-01-22T02:20:20.619Z,78.13
2023-01-22T02:21:32.937Z,78.77
2023-01-22T02:22:36.927Z,77.76
2023-01-22T02:23:39.911Z,77.85
2023-01-22T02:24:41.534Z,77.83
2023-01-22T02:25:43.430Z,77.59
2023-01-22T02:26:46.057Z,77.71
2023-01-22T02:27:51.575Z,77.64
2023-01-22T02:28:54.881Z,77.87
2023-01-22T02:29:57.268Z,78.32
2023-01-22T02:32:51.931Z,78.83
2023-01-22T02:33:53.801Z,78.10
2023-01-22T02:34:55.893Z,78.22
2023-01-22T02:35:57.688Z,78.10
2023-01-22T02:37:00.574Z,77.64
2023-01-22T02:38:03.448Z,78.03
2023-01-22T02:39:06.069Z,79.67
2023-01-22T02:40:08.230Z,78.74
2023-01-22T02:41:10.893Z,77.57
2023-01-22T02:42:14.467Z,77.67
2023-01-22T02:43:17.016Z,78.53
2023-01-22T02:44:20.279Z,78.16
2023-01-22T02:45:22.580Z,77.84
2023-01-22T02:46:27.404Z,77.89
2023-01-22T02:47:29.035Z,78.32
2023-01-22T02:48:30.792Z,79.20
2023-01-22T02:49:33.387Z,81.18
2023-01-22T02:50:35.835Z,79.98
2023-01-22T02:51:37.644Z,77.91
2023-01-22T02:52:39.530Z,77.80
2023-01-22T02:53:41.285Z,78.10
2023-01-22T02:54:44.280Z,78.12
2023-01-22T02:55:49.633Z,78.04
2023-01-22T02:56:51.267Z,77.77
2023-01-22T02:57:54.051Z,77.72
2023-01-22T02:58:55.768Z,77.74
2023-01-22T02:59:58.135Z,78.68
2023-01-22T03:01:18.016Z,80.37
2023-01-22T03:02:20.184Z,79.80
2023-01-22T03:03:22.556Z,79.34
2023-01-22T03:04:24.169Z,79.11
2023-01-22T03:05:25.774Z,78.20
2023-01-22T03:06:28.524Z,78.45
2023-01-22T03:07:42.574Z,78.04
2023-01-22T03:08:44.205Z,77.86
2023-01-22T03:09:46.917Z,77.78
2023-01-22T03:10:48.561Z,77.77
2023-01-22T03:11:50.002Z,77.74
2023-01-22T03:13:17.748Z,77.67
2023-01-22T03:14:38.777Z,79.23
2023-01-22T03:15:59.190Z,78.50
2023-01-22T03:17:19.872Z,79.95
2023-01-22T03:18:40.174Z,79.57
2023-01-22T03:20:00.609Z,82.89
2023-01-22T03:21:22.721Z,80.36
2023-01-22T03:22:24.536Z,79.37
2023-01-22T03:23:27.591Z,78.37
2023-01-22T03:24:29.172Z,78.22
2023-01-22T03:25:30.648Z,79.07
2023-01-22T03:26:32.871Z,79.50
2023-01-22T03:27:34.672Z,77.90
2023-01-22T03:28:36.617Z,78.26
2023-01-22T03:29:38.095Z,79.40
2023-01-22T03:30:39.871Z,81.31
2023-01-22T03:31:47.487Z,78.94
2023-01-22T03:32:49.298Z,78.65
2023-01-22T03:33:50.979Z,78.59
2023-01-22T03:34:53.243Z,79.50
2023-01-22T03:35:59.138Z,80.20
2023-01-22T03:37:00.727Z,80.90
2023-01-22T03:38:02.409Z,78.99
2023-01-22T03:39:03.962Z,78.62
2023-01-22T03:40:05.819Z,77.83
2023-01-22T03:41:12.361Z,79.56
2023-01-22T03:42:16.385Z,78.89
2023-01-22T03:43:18.375Z,78.32
2023-01-22T03:44:20.148Z,77.96
2023-01-22T03:45:23.216Z,79.52
2023-01-22T03:46:25.049Z,79.44
2023-01-22T03:47:29.758Z,78.49
2023-01-22T03:48:31.917Z,78.46
2023-01-22T03:49:33.535Z,78.04
2023-01-22T03:50:35.768Z,78.20
2023-01-22T03:51:37.371Z,80.42
2023-01-22T03:52:38.985Z,79.36
2023-01-22T03:53:41.431Z,80.72
2023-01-22T03:54:42.968Z,81.36
2023-01-22T03:55:44.819Z,79.12
2023-01-22T03:56:46.453Z,78.03
2023-01-22T03:57:56.459Z,78.03
2023-01-22T03:58:59.238Z,79.09
2023-01-22T04:00:06.303Z,80.13
2023-01-22T04:01:18.726Z,78.18
2023-01-22T04:02:20.458Z,79.59
2023-01-22T04:03:31.888Z,77.85
2023-01-22T04:04:33.740Z,77.62
2023-01-22T04:05:36.963Z,77.68
2023-01-22T04:06:38.565Z,77.62
2023-01-22T04:07:40.113Z,77.89
2023-01-22T04:08:43.325Z,78.00
2023-01-22T04:09:44.993Z,78.32
2023-01-22T04:10:47.386Z,78.02
2023-01-22T04:11:48.920Z,78.11
2023-01-22T04:12:52.667Z,78.05
2023-01-22T04:13:56.442Z,78.18
2023-01-22T04:14:59.594Z,78.69
2023-01-22T04:16:02.178Z,78.17
2023-01-22T04:17:22.425Z,77.76
2023-01-22T04:18:26.985Z,78.03
2023-01-22T04:19:42.266Z,77.95
2023-01-22T04:21:03.512Z,79.00
2023-01-22T04:22:18.244Z,79.27
2023-01-22T04:23:21.717Z,79.76
2023-01-22T04:24:24.390Z,79.71
2023-01-22T04:25:27.352Z,79.12
2023-01-22T04:26:30.009Z,80.54
2023-01-22T04:27:37.078Z,78.59
2023-01-22T04:28:38.710Z,78.19
2023-01-22T04:29:40.328Z,78.21
2023-01-22T04:30:43.949Z,78.53
2023-01-22T04:32:08.510Z,79.64
2023-01-22T04:33:26.895Z,80.00
2023-01-22T04:34:37.412Z,78.76
2023-01-22T04:35:53.831Z,78.76
2023-01-22T04:36:55.467Z,78.15
2023-01-22T04:37:57.957Z,77.99
2023-01-22T04:38:59.428Z,78.44
2023-01-22T04:40:01.279Z,78.22
2023-01-22T04:41:03.152Z,78.25
2023-01-22T04:42:04.710Z,78.37
2023-01-22T04:43:07.804Z,79.36
2023-01-22T04:44:10.902Z,78.02
2023-01-22T04:45:15.340Z,78.83
2023-01-22T04:46:16.979Z,78.30
2023-01-22T04:47:18.964Z,78.15
2023-01-22T04:48:20.867Z,78.30
2023-01-22T04:49:22.388Z,77.97
2023-01-22T04:50:27.439Z,77.86
2023-01-22T04:51:29.065Z,77.82
2023-01-22T04:52:30.755Z,78.14
2023-01-22T04:53:32.329Z,78.38
2023-01-22T04:54:34.849Z,78.95
2023-01-22T04:55:37.705Z,79.08
2023-01-22T04:56:42.400Z,79.00
2023-01-22T04:57:44.735Z,78.44
2023-01-22T04:58:46.267Z,78.86
2023-01-22T04:59:49.390Z,78.33
2023-01-22T05:00:56.876Z,78.37
2023-01-22T05:01:58.795Z,78.41
2023-01-22T05:03:02.129Z,78.90
2023-01-22T05:04:04.680Z,78.41
2023-01-22T05:05:09.185Z,79.54
2023-01-22T05:06:10.701Z,79.23
2023-01-22T05:07:13.859Z,79.43
2023-01-22T05:08:15.365Z,81.18
2023-01-22T05:09:17.309Z,79.22
2023-01-22T05:10:26.540Z,79.33
2023-01-22T05:11:28.651Z,80.61
2023-01-22T05:12:35.031Z,79.31
2023-01-22T05:13:36.993Z,79.46
2023-01-22T05:14:38.677Z,78.60
2023-01-22T05:15:40.592Z,78.45
2023-01-22T05:16:44.937Z,80.29
2023-01-22T05:17:46.503Z,79.54
2023-01-22T05:18:48.830Z,81.98
2023-01-22T05:19:50.521Z,83.04
2023-01-22T05:20:55.117Z,83.34
2023-01-22T05:21:58.429Z,83.15
2023-01-22T05:23:00.178Z,84.33
2023-01-22T05:24:02.340Z,84.34
2023-01-22T05:25:05.311Z,83.97
2023-01-22T05:26:07.013Z,83.61
2023-01-22T05:27:17.536Z,82.42
2023-01-22T05:28:27.523Z,82.87
2023-01-22T05:29:49.439Z,82.38
2023-01-22T05:31:13.047Z,83.57
2023-01-22T05:32:25.194Z,83.73
2023-01-22T05:33:30.052Z,81.20
2023-01-22T05:34:31.844Z,80.63
2023-01-22T05:35:33.728Z,79.52
2023-01-22T05:36:35.487Z,79.55
2023-01-22T05:37:48.668Z,79.68
2023-01-22T05:38:50.340Z,79.50
2023-01-22T05:39:53.910Z,81.18
2023-01-22T05:40:55.636Z,81.08
2023-01-22T05:41:58.633Z,81.88
2023-01-22T05:43:02.495Z,82.61
2023-01-22T05:44:05.281Z,80.77
2023-01-22T05:45:07.129Z,79.74
2023-01-22T05:46:13.474Z,78.89
2023-01-22T05:47:17.984Z,79.44
2023-01-22T05:48:25.562Z,80.44
2023-01-22T05:49:30.925Z,80.44
2023-01-22T05:50:33.421Z,81.69
2023-01-22T05:51:43.036Z,80.95
2023-01-22T05:52:45.691Z,80.77
2023-01-22T05:53:47.725Z,79.93
2023-01-22T05:54:49.930Z,79.27
2023-01-22T05:55:52.082Z,79.49
2023-01-22T05:56:53.752Z,79.15
2023-01-22T05:57:55.382Z,79.35
2023-01-22T05:58:57.875Z,80.20
2023-01-22T05:59:59.457Z,81.55
2023-01-22T06:01:01.066Z,81.54
2023-01-22T06:02:06.156Z,79.25
2023-01-22T06:03:09.768Z,81.04
2023-01-22T06:04:18.481Z,80.73
2023-01-22T06:05:20.218Z,81.64
2023-01-22T06:06:24.457Z,81.49
2023-01-22T06:07:25.955Z,80.40
2023-01-22T06:08:28.165Z,80.85
2023-01-22T06:09:29.742Z,81.67
2023-01-22T06:10:31.343Z,84.14
2023-01-22T06:11:32.930Z,83.86
2023-01-22T06:12:34.563Z,83.39
2023-01-22T06:13:36.491Z,82.11
2023-01-22T06:14:44.326Z,79.13
2023-01-22T06:15:46.385Z,81.12
2023-01-22T06:17:01.124Z,82.30
2023-01-22T06:18:21.051Z,81.24
2023-01-22T06:19:23.079Z,81.38
2023-01-22T06:20:27.219Z,82.36
2023-01-22T06:21:28.914Z,84.33
2023-01-22T06:22:31.369Z,82.29
2023-01-22T06:23:35.097Z,79.76
2023-01-22T06:24:36.860Z,79.50
2023-01-22T06:25:40.221Z,79.11
2023-01-22T06:26:50.043Z,78.37
2023-01-22T06:27:52.380Z,78.02
2023-01-22T06:28:54.542Z,77.97
2023-01-22T06:29:57.105Z,79.07
2023-01-22T06:31:04.679Z,78.45
2023-01-22T06:32:07.033Z,78.84
2023-01-22T06:33:08.495Z,77.83
2023-01-22T06:34:10.043Z,78.42
2023-01-22T06:35:11.896Z,79.10
2023-01-22T06:36:13.567Z,81.60
2023-01-22T06:37:15.196Z,82.29
2023-01-22T06:38:17.030Z,81.59
2023-01-22T06:39:18.584Z,83.68
2023-01-22T06:40:30.349Z,83.66
2023-01-22T06:41:32.451Z,84.40
2023-01-22T06:42:36.212Z,80.77
2023-01-22T06:43:37.748Z,78.32
2023-01-22T06:44:39.299Z,78.76
2023-01-22T06:45:40.918Z,78.18
2023-01-22T06:46:43.454Z,78.70
2023-01-22T06:47:51.797Z,78.21
2023-01-22T06:48:53.335Z,79.81
2023-01-22T06:49:54.839Z,78.65
2023-01-22T06:50:58.004Z,78.62
2023-01-22T06:51:59.518Z,78.13
2023-01-22T06:53:01.334Z,77.72
2023-01-22T06:54:03.040Z,77.63
2023-01-22T06:55:04.737Z,78.06
2023-01-22T06:56:06.578Z,78.09
2023-01-22T06:57:08.643Z,78.28
2023-01-22T06:58:11.356Z,79.73
2023-01-22T06:59:12.848Z,80.69
2023-01-22T07:00:14.506Z,80.25
2023-01-22T07:01:16.166Z,80.61
2023-01-22T07:02:18.427Z,81.70
2023-01-22T07:03:20.517Z,81.13
2023-01-22T07:04:22.097Z,81.81
2023-01-22T07:05:23.844Z,82.30
2023-01-22T07:06:25.471Z,82.10
2023-01-22T07:07:26.943Z,83.40
2023-01-22T07:08:29.334Z,83.85
2023-01-22T07:09:30.799Z,84.23
2023-01-22T07:10:32.328Z,84.47
2023-01-22T07:11:34.189Z,81.36
2023-01-22T07:12:36.051Z,79.91
2023-01-22T07:13:37.556Z,79.72
2023-01-22T07:14:39.032Z,79.68
2023-01-22T07:15:40.612Z,81.02
2023-01-22T07:16:42.156Z,82.34
2023-01-22T07:17:48.907Z,82.61
2023-01-22T07:18:50.444Z,81.06
2023-01-22T07:19:51.870Z,79.24
2023-01-22T07:20:53.689Z,78.91
2023-01-22T07:21:55.321Z,78.38
2023-01-22T07:22:59.106Z,78.37
2023-01-22T07:24:00.894Z,78.32
2023-01-22T07:25:02.863Z,78.18
2023-01-22T07:26:04.418Z,79.77
2023-01-22T07:27:06.032Z,78.92
2023-01-22T07:28:07.891Z,78.08
2023-01-22T07:29:09.853Z,77.99
2023-01-22T07:30:11.892Z,78.57
2023-01-22T07:31:14.048Z,79.07
2023-01-22T07:32:15.906Z,81.70
2023-01-22T07:33:17.686Z,82.74
2023-01-22T07:34:19.416Z,82.16
2023-01-22T07:35:20.936Z,79.63
2023-01-22T07:36:22.518Z,78.53
2023-01-22T07:37:24.085Z,78.37
2023-01-22T07:38:28.846Z,77.88
2023-01-22T07:39:30.460Z,78.04
2023-01-22T07:40:32.366Z,77.97
2023-01-22T07:41:33.831Z,78.23
2023-01-22T07:42:38.626Z,78.48
2023-01-22T07:43:40.261Z,77.95
2023-01-22T07:44:41.850Z,78.40
2023-01-22T07:45:43.377Z,80.62
2023-01-22T07:46:44.923Z,80.08
2023-01-22T07:47:50.998Z,80.46
2023-01-22T07:48:52.595Z,81.89
2023-01-22T07:49:54.313Z,80.61
2023-01-22T07:51:02.216Z,80.93
2023-01-22T07:52:03.888Z,82.71
2023-01-22T07:53:06.607Z,83.11
2023-01-22T07:54:08.059Z,81.19
2023-01-22T07:55:09.744Z,81.27
2023-01-22T07:56:11.322Z,82.32
2023-01-22T07:57:14.828Z,80.87
2023-01-22T07:58:16.381Z,82.84
2023-01-22T07:59:17.925Z,81.62
2023-01-22T08:00:19.783Z,80.21
2023-01-22T08:01:21.659Z,80.80
2023-01-22T08:02:23.178Z,80.69
2023-01-22T08:03:25.020Z,80.81
2023-01-22T08:04:26.574Z,79.88
2023-01-22T08:05:28.175Z,80.86
2023-01-22T08:06:29.705Z,79.47
2023-01-22T08:07:31.217Z,79.95
2023-01-22T08:08:32.951Z,81.48
2023-01-22T08:09:35.458Z,79.65
2023-01-22T08:10:37.586Z,79.69
2023-01-22T08:11:39.180Z,79.42
2023-01-22T08:12:41.545Z,80.01
2023-01-22T08:13:43.142Z,79.98
2023-01-22T08:14:44.654Z,80.71
2023-01-22T08:15:46.145Z,79.74
2023-01-22T08:16:47.723Z,78.72
2023-01-22T08:17:50.424Z,78.22
2023-01-22T08:18:53.187Z,78.74
2023-01-22T08:19:54.752Z,78.56
2023-01-22T08:20:59.133Z,78.83
2023-01-22T08:22:00.637Z,80.29
2023-01-22T08:23:02.257Z,79.56
2023-01-22T08:24:04.608Z,78.87
2023-01-22T08:25:06.412Z,79.11
2023-01-22T08:26:07.976Z,80.29
2023-01-22T08:27:09.763Z,79.24
2023-01-22T08:28:11.191Z,79.74
2023-01-22T08:29:13.201Z,79.93
2023-01-22T08:30:15.117Z,79.02
2023-01-22T08:31:27.484Z,78.44
2023-01-22T08:32:30.434Z,79.37
2023-01-22T08:33:33.271Z,79.73
2023-01-22T08:34:35.084Z,79.09
2023-01-22T08:35:39.765Z,79.26
2023-01-22T08:36:41.499Z,79.78
2023-01-22T08:37:45.749Z,79.69
2023-01-22T08:38:47.289Z,78.96
2023-01-22T08:39:49.017Z,79.81
2023-01-22T08:40:50.964Z,79.21
2023-01-22T08:41:56.712Z,80.65
2023-01-22T08:42:58.244Z,79.41
2023-01-22T08:43:59.787Z,80.40
2023-01-22T08:45:01.421Z,79.71
2023-01-22T08:46:03.107Z,81.27
2023-01-22T08:47:04.947Z,81.94
2023-01-22T08:48:06.387Z,81.40
2023-01-22T08:49:08.032Z,80.96
2023-01-22T08:50:09.762Z,80.81
2023-01-22T08:51:11.752Z,80.09
2023-01-22T08:52:13.961Z,78.61
2023-01-22T08:53:15.551Z,78.19
2023-01-22T08:54:17.722Z,78.12
2023-01-22T08:55:19.416Z,78.22
2023-01-22T08:56:20.963Z,78.55
2023-01-22T08:57:22.448Z,79.72
2023-01-22T08:58:24.768Z,79.53
2023-01-22T08:59:26.549Z,78.84
2023-01-22T09:00:28.432Z,78.95
2023-01-22T09:01:29.921Z,79.19
2023-01-22T09:02:31.753Z,80.16
2023-01-22T09:03:33.508Z,81.77
2023-01-22T09:04:35.055Z,81.35
2023-01-22T09:05:38.347Z,79.17
2023-01-22T09:06:40.174Z,79.54
2023-01-22T09:07:41.703Z,79.16
2023-01-22T09:08:43.184Z,79.37
2023-01-22T09:09:44.705Z,79.98
2023-01-22T09:10:46.420Z,79.47
2023-01-22T09:11:47.911Z,78.82
2023-01-22T09:12:49.485Z,78.79
2023-01-22T09:13:54.316Z,79.83
2023-01-22T09:14:55.754Z,79.75
2023-01-22T09:15:58.573Z,82.01
2023-01-22T09:17:00.143Z,82.55
2023-01-22T09:18:02.139Z,80.33
2023-01-22T09:19:04.153Z,82.12
2023-01-22T09:20:05.919Z,79.75
2023-01-22T09:21:07.881Z,78.42
2023-01-22T09:22:09.669Z,79.40
2023-01-22T09:23:11.319Z,81.85
2023-01-22T09:24:12.906Z,82.04
2023-01-22T09:25:15.109Z,80.04
2023-01-22T09:26:16.855Z,80.69
2023-01-22T09:27:18.344Z,80.10
2023-01-22T09:28:19.824Z,79.25
2023-01-22T09:29:21.227Z,79.35
2023-01-22T09:30:25.828Z,79.74
2023-01-22T09:31:27.751Z,81.46
2023-01-22T09:32:29.357Z,82.75
2023-01-22T09:33:30.911Z,81.24
2023-01-22T09:34:32.741Z,80.99
2023-01-22T09:35:34.240Z,82.01
2023-01-22T09:36:35.835Z,80.32
2023-01-22T09:37:37.464Z,79.47
2023-01-22T09:38:39.214Z,79.23
2023-01-22T09:39:40.817Z,78.73
2023-01-22T09:40:52.340Z,78.68
2023-01-22T09:41:54.944Z,79.76
2023-01-22T09:43:03.987Z,80.37
2023-01-22T09:44:08.274Z,81.95
2023-01-22T09:45:11.644Z,83.03
2023-01-22T09:46:19.638Z,83.11
2023-01-22T09:47:29.489Z,84.39
2023-01-22T09:48:36.740Z,84.42
2023-01-22T09:50:00.069Z,82.67
2023-01-22T09:51:02.037Z,82.49
2023-01-22T09:52:05.646Z,83.75
2023-01-22T09:53:11.120Z,83.62
2023-01-22T09:54:14.904Z,82.30
2023-01-22T09:55:17.982Z,82.86
2023-01-22T09:56:21.787Z,81.09
2023-01-22T09:57:31.700Z,82.71
2023-01-22T09:58:35.093Z,82.86
2023-01-22T09:59:46.874Z,83.26
2023-01-22T10:01:01.874Z,81.58
2023-01-22T10:02:14.323Z,82.39
2023-01-22T10:03:24.352Z,83.45
2023-01-22T10:04:29.770Z,84.19
2023-01-22T10:05:36.941Z,83.33
2023-01-22T10:06:39.731Z,84.02
2023-01-22T10:07:46.184Z,82.14
2023-01-22T10:08:50.521Z,83.19
2023-01-22T10:09:54.047Z,82.60
2023-01-22T10:10:56.959Z,81.11
2023-01-22T10:11:59.443Z,81.98
2023-01-22T10:13:19.882Z,81.10
2023-01-22T10:14:23.527Z,81.49
2023-01-22T10:15:25.231Z,80.71
2023-01-22T10:16:26.995Z,82.78
2023-01-22T10:17:37.146Z,83.36
2023-01-22T10:18:47.710Z,83.46
2023-01-22T10:19:55.753Z,83.25
2023-01-22T10:20:59.895Z,81.72
2023-01-22T10:22:10.057Z,83.96
2023-01-22T10:23:19.775Z,84.05
2023-01-22T10:24:21.238Z,80.91
2023-01-22T10:25:22.830Z,81.47
2023-01-22T10:26:27.583Z,80.42
2023-01-22T10:27:38.735Z,81.87
2023-01-22T10:28:43.977Z,83.30
2023-01-22T10:29:54.910Z,80.69
2023-01-22T10:30:58.249Z,82.99
2023-01-22T10:32:01.254Z,84.03
2023-01-22T10:33:04.573Z,84.05
2023-01-22T10:34:12.273Z,84.17
2023-01-22T10:35:18.660Z,84.90
2023-01-22T10:36:20.078Z,84.94
2023-01-22T10:37:21.643Z,82.33
2023-01-22T10:38:24.697Z,80.55
2023-01-22T10:39:26.164Z,80.95
2023-01-22T10:40:33.505Z,83.20
2023-01-22T10:41:35.008Z,83.23
2023-01-22T10:42:36.715Z,83.88
2023-01-22T10:43:38.384Z,84.09
2023-01-22T10:44:39.923Z,83.73
2023-01-22T10:46:00.201Z,83.50
2023-01-22T10:47:09.056Z,83.94
2023-01-22T10:48:12.788Z,84.07
2023-01-22T10:49:18.960Z,84.32
2023-01-22T10:50:20.581Z,85.01
2023-01-22T10:51:26.703Z,84.30
2023-01-22T10:52:44.461Z,84.20
2023-01-22T10:53:52.195Z,84.76
2023-01-22T10:54:56.557Z,85.87
2023-01-22T10:56:00.364Z,86.00
2023-01-22T10:57:03.739Z,85.89
2023-01-22T10:58:07.294Z,85.85
2023-01-22T10:59:22.205Z,84.54
2023-01-22T11:00:46.747Z,82.43
2023-01-22T11:02:14.361Z,82.40
2023-01-22T11:03:22.530Z,80.16
2023-01-22T11:04:29.407Z,80.79
2023-01-22T11:05:33.222Z,83.38
2023-01-22T11:06:39.187Z,84.65
2023-01-22T11:07:42.320Z,84.11
2023-01-22T11:08:59.443Z,84.01
2023-01-22T11:10:20.253Z,84.53
2023-01-22T11:11:34.034Z,82.90
2023-01-22T11:12:39.812Z,80.72
2023-01-22T11:13:47.948Z,82.37
2023-01-22T11:14:57.191Z,79.58
2023-01-22T11:16:17.342Z,80.85
2023-01-22T11:17:21.614Z,79.11
2023-01-22T11:18:29.710Z,78.66
2023-01-22T11:19:37.481Z,80.09
2023-01-22T11:20:51.196Z,81.31
2023-01-22T11:21:55.215Z,81.38
2023-01-22T11:22:59.788Z,79.34
2023-01-22T11:24:18.144Z,79.00
2023-01-22T11:25:20.158Z,79.45
2023-01-22T11:26:21.828Z,80.15
2023-01-22T11:27:23.722Z,80.70
2023-01-22T11:28:41.171Z,83.18
2023-01-22T11:30:04.221Z,85.40
2023-01-22T11:31:12.703Z,85.10
2023-01-22T11:32:33.183Z,85.10
2023-01-22T11:33:43.984Z,85.34
2023-01-22T11:35:03.674Z,85.68
2023-01-22T11:36:24.461Z,84.83
2023-01-22T11:37:32.126Z,84.59
2023-01-22T11:38:33.728Z,85.04
2023-01-22T11:39:54.325Z,86.14
2023-01-22T11:41:18.752Z,86.52
2023-01-22T11:42:20.153Z,86.25
2023-01-22T11:43:27.532Z,84.59
2023-01-22T11:44:36.851Z,84.84
2023-01-22T11:45:49.791Z,84.13
2023-01-22T11:46:57.309Z,84.82
2023-01-22T11:48:18.052Z,85.10
2023-01-22T11:49:28.735Z,82.49
2023-01-22T11:50:36.731Z,82.24
2023-01-22T11:51:47.630Z,82.84
2023-01-22T11:53:08.187Z,84.06
2023-01-22T11:54:28.156Z,84.89
2023-01-22T11:55:51.415Z,83.16
2023-01-22T11:57:04.919Z,82.05
2023-01-22T11:58:24.803Z,80.94
2023-01-22T11:59:36.002Z,78.91
2023-01-22T12:00:42.511Z,79.29
2023-01-22T12:01:44.092Z,82.31
2023-01-22T12:03:04.707Z,82.28
2023-01-22T12:04:26.711Z,79.71
2023-01-22T12:06:00.951Z,79.18
2023-01-22T12:07:09.108Z,83.45
2023-01-22T12:08:22.802Z,82.73
2023-01-22T12:09:31.596Z,82.18
2023-01-22T12:10:39.075Z,83.31
2023-01-22T12:11:59.421Z,82.78
2023-01-22T12:13:01.108Z,80.59
2023-01-22T12:14:02.981Z,81.06
2023-01-22T12:15:04.582Z,80.74
2023-01-22T12:16:12.311Z,79.65
2023-01-22T12:17:24.442Z,80.28
2023-01-22T12:18:32.256Z,80.18
2023-01-22T12:19:36.707Z,83.47
2023-01-22T12:20:48.020Z,83.16
2023-01-22T12:21:55.949Z,81.81
2023-01-22T12:23:05.057Z,82.58
2023-01-22T12:24:06.578Z,84.37
2023-01-22T12:25:11.427Z,84.48
2023-01-22T12:26:12.883Z,84.70
2023-01-22T12:27:26.429Z,85.45
2023-01-22T12:28:51.221Z,85.48
2023-01-22T12:29:58.238Z,85.84
2023-01-22T12:31:02.115Z,85.34
2023-01-22T12:32:08.574Z,84.64
2023-01-22T12:33:14.311Z,82.33
2023-01-22T12:34:22.833Z,83.29
2023-01-22T12:35:26.251Z,83.19
2023-01-22T12:36:28.377Z,82.35
2023-01-22T12:37:53.183Z,82.74
2023-01-22T12:39:05.671Z,83.69
2023-01-22T12:40:21.459Z,84.10
2023-01-22T12:41:38.466Z,84.97
2023-01-22T12:42:47.282Z,85.20
2023-01-22T12:43:52.023Z,85.02
2023-01-22T12:44:59.466Z,85.27
2023-01-22T12:46:04.295Z,85.61
2023-01-22T12:47:29.098Z,86.29
2023-01-22T12:48:39.973Z,83.44
2023-01-22T12:49:45.956Z,82.83
2023-01-22T12:50:50.927Z,82.53
2023-01-22T12:51:54.085Z,81.87
2023-01-22T12:53:03.969Z,79.98
2023-01-22T12:54:09.762Z,79.89
2023-01-22T12:55:22.161Z,79.36
2023-01-22T12:56:33.269Z,79.61
2023-01-22T12:57:39.387Z,82.06
2023-01-22T12:58:42.200Z,81.17
2023-01-22T12:59:46.046Z,80.50
2023-01-22T13:00:58.512Z,79.06
2023-01-22T13:02:04.298Z,78.70
2023-01-22T13:03:31.727Z,78.65
2023-01-22T13:04:34.097Z,78.72
2023-01-22T13:05:36.999Z,78.19
2023-01-22T13:06:39.810Z,78.33
2023-01-22T13:07:41.488Z,78.42
2023-01-22T13:08:43.774Z,78.70
2023-01-22T13:09:45.460Z,78.79
2023-01-22T13:10:55.155Z,79.96
2023-01-22T13:12:06.801Z,81.28
2023-01-22T13:13:26.983Z,80.43
2023-01-22T13:14:30.421Z,81.22
2023-01-22T13:15:34.124Z,82.03
2023-01-22T13:16:37.757Z,81.11
2023-01-22T13:17:39.636Z,78.80
2023-01-22T13:18:43.472Z,79.05
2023-01-22T13:19:46.207Z,79.83
2023-01-22T13:21:02.342Z,80.11
2023-01-22T13:22:04.968Z,80.58
2023-01-22T13:23:06.964Z,81.22
2023-01-22T13:24:14.078Z,80.83
2023-01-22T13:25:22.942Z,80.41
2023-01-22T13:26:25.944Z,80.44
2023-01-22T13:27:33.079Z,81.21
2023-01-22T13:28:34.969Z,82.60
2023-01-22T13:29:37.012Z,81.21
2023-01-22T13:30:38.536Z,80.24
2023-01-22T13:31:40.161Z,81.10
2023-01-22T13:32:41.797Z,83.30
2023-01-22T13:33:59.270Z,82.80
2023-01-22T13:35:02.829Z,81.98
2023-01-22T13:36:10.203Z,81.38
2023-01-22T13:37:22.248Z,81.87
2023-01-22T13:38:25.899Z,79.90
2023-01-22T13:39:29.339Z,81.21
2023-01-22T13:40:42.685Z,83.50
2023-01-22T13:41:53.445Z,81.95
2023-01-22T13:42:55.797Z,81.95
2023-01-22T13:43:58.220Z,83.86
2023-01-22T13:45:00.451Z,84.49
2023-01-22T13:46:02.380Z,85.58
2023-01-22T13:47:04.310Z,83.59
2023-01-22T13:48:05.979Z,84.52
2023-01-22T13:49:14.752Z,84.96
2023-01-22T13:50:18.070Z,85.08
2023-01-22T13:51:20.957Z,85.82
2023-01-22T13:52:22.918Z,85.87
2023-01-22T13:53:29.247Z,85.53
2023-01-22T13:54:42.336Z,86.02
2023-01-22T13:55:44.103Z,82.66
2023-01-22T13:56:45.832Z,84.11